createdAt,value
2022-11-05T00:00:38.306Z,77.95
2022-11-05T00:03:24.486Z,78.20
2022-11-05T00:06:12.225Z,78.37
2022-11-05T00:08:59.589Z,78.75
2022-11-05T00:11:46.343Z,78.37
2022-11-05T00:14:32.249Z,78.61
2022-11-05T00:16:59.044Z,78.24
2022-11-05T00:19:25.804Z,77.84
2022-11-05T00:22:10.881Z,77.96
2022-11-05T00:24:56.126Z,77.74
2022-11-05T00:27:22.903Z,77.49
2022-11-05T00:29:49.674Z,77.49
2022-11-05T00:32:16.428Z,77.79
2022-11-05T00:34:43.212Z,77.52
2022-11-05T00:37:09.973Z,77.95
2022-11-05T00:39:37.021Z,78.31
2022-11-05T00:42:22.805Z,78.36
2022-11-05T00:45:01.548Z,78.38
2022-11-05T00:47:47.643Z,78.30
2022-11-05T00:50:14.627Z,77.92
2022-11-05T00:52:56.924Z,78.43
2022-11-05T00:55:30.685Z,78.22
2022-11-05T00:57:58.135Z,78.83
2022-11-05T01:00:28.500Z,78.80
2022-11-05T01:02:59.368Z,78.83
2022-11-05T01:05:26.196Z,78.37
2022-11-05T01:07:53.609Z,78.76
2022-11-05T01:10:21.459Z,78.50
2022-11-05T01:12:48.851Z,78.83
2022-11-05T01:15:17.177Z,78.79
2022-11-05T01:17:44.141Z,78.97
2022-11-05T01:20:11.731Z,78.85
2022-11-05T01:22:38.531Z,78.97
2022-11-05T01:25:07.426Z,79.00
2022-11-05T01:27:35.964Z,78.61
2022-11-05T01:30:04.456Z,78.67
2022-11-05T01:32:31.332Z,78.81
2022-11-05T01:34:58.126Z,78.91
2022-11-05T01:38:08.526Z,78.96
2022-11-05T01:40:35.355Z,79.29
2022-11-05T01:43:02.198Z,79.15
2022-11-05T01:45:29.363Z,78.99
2022-11-05T01:48:10.991Z,79.05
2022-11-05T01:51:03.202Z,79.02
2022-11-05T01:53:50.875Z,79.18
2022-11-05T01:56:41.639Z,79.42
2022-11-05T01:59:22.377Z,79.13
2022-11-05T02:01:49.389Z,79.37
2022-11-05T02:04:35.538Z,79.55
2022-11-05T02:07:04.464Z,79.03
2022-11-05T02:09:44.134Z,79.49
2022-11-05T02:12:12.606Z,79.67
2022-11-05T02:14:39.490Z,79.59
2022-11-05T02:17:34.055Z,79.47
2022-11-05T02:20:33.781Z,79.74
2022-11-05T02:23:31.210Z,79.70
2022-11-05T02:26:33.090Z,80.10
2022-11-05T02:29:42.559Z,79.72
2022-11-05T02:32:26.310Z,79.95
2022-11-05T02:35:07.023Z,79.75
2022-11-05T02:38:00.298Z,79.71
2022-11-05T02:40:59.416Z,79.72
2022-11-05T02:44:10.415Z,79.42
2022-11-05T02:46:57.754Z,79.36
2022-11-05T02:49:42.602Z,79.72
2022-11-05T02:52:25.959Z,79.62
2022-11-05T02:55:27.065Z,79.79
2022-11-05T02:57:53.982Z,79.91
2022-11-05T03:00:42.009Z,79.97
2022-11-05T03:03:31.204Z,80.10
2022-11-05T03:06:40.888Z,80.20
2022-11-05T03:09:35.201Z,80.18
2022-11-05T03:12:28.003Z,80.18
2022-11-05T03:15:29.703Z,79.91
2022-11-05T03:18:07.307Z,80.22
2022-11-05T03:20:57.181Z,80.29
2022-11-05T03:23:52.089Z,80.24
2022-11-05T03:26:32.126Z,80.83
2022-11-05T03:29:19.552Z,80.76
2022-11-05T03:31:49.426Z,80.26
2022-11-05T03:34:20.084Z,80.29
2022-11-05T03:36:52.433Z,80.18
2022-11-05T03:39:42.421Z,80.40
2022-11-05T03:42:14.046Z,79.91
2022-11-05T03:44:46.660Z,79.85
2022-11-05T03:47:22.974Z,80.10
2022-11-05T03:50:18.089Z,79.89
2022-11-05T03:53:09.987Z,80.41
2022-11-05T03:55:56.556Z,80.07
2022-11-05T03:58:24.269Z,80.43
2022-11-05T04:00:51.576Z,80.21
2022-11-05T04:03:18.564Z,79.73
2022-11-05T04:06:05.635Z,79.84
2022-11-05T04:08:50.884Z,80.17
2022-11-05T04:11:36.167Z,80.36
2022-11-05T04:14:02.950Z,80.21
2022-11-05T04:16:48.065Z,80.06
2022-11-05T04:19:34.825Z,80.01
2022-11-05T04:22:19.893Z,80.15
2022-11-05T04:24:46.679Z,79.98
2022-11-05T04:27:13.439Z,80.00
2022-11-05T04:29:58.600Z,80.21
2022-11-05T04:32:25.366Z,79.96
2022-11-05T04:34:52.180Z,80.15
2022-11-05T04:37:18.950Z,80.01
2022-11-05T04:39:45.716Z,79.98
2022-11-05T04:42:12.502Z,80.02
2022-11-05T04:44:39.300Z,80.27
2022-11-05T04:47:06.129Z,80.24
2022-11-05T04:49:32.906Z,79.91
2022-11-05T04:51:59.675Z,80.04
2022-11-05T04:54:26.467Z,79.82
2022-11-05T04:56:53.258Z,79.87
2022-11-05T04:59:20.140Z,79.63
2022-11-05T05:01:51.459Z,79.69
2022-11-05T05:04:18.358Z,79.70
2022-11-05T05:06:45.754Z,79.78
2022-11-05T05:09:12.611Z,79.63
2022-11-05T05:11:40.976Z,79.70
2022-11-05T05:14:08.615Z,79.81
2022-11-05T05:16:35.400Z,80.01
2022-11-05T05:19:02.179Z,80.14
2022-11-05T05:21:41.509Z,79.64
2022-11-05T05:24:16.172Z,79.83
2022-11-05T05:26:49.027Z,80.24
2022-11-05T05:29:17.052Z,79.94
2022-11-05T05:31:44.571Z,80.43
2022-11-05T05:34:13.345Z,80.15
2022-11-05T05:36:40.478Z,80.15
2022-11-05T05:39:11.052Z,80.28
2022-11-05T05:41:38.107Z,80.34
2022-11-05T05:44:06.274Z,80.35
2022-11-05T05:46:33.104Z,80.16
2022-11-05T05:48:59.896Z,79.94
2022-11-05T05:51:26.668Z,79.87
2022-11-05T05:53:54.804Z,80.38
2022-11-05T05:56:21.828Z,80.06
2022-11-05T05:58:48.845Z,80.18
2022-11-05T06:01:19.576Z,80.47
2022-11-05T06:03:48.452Z,80.76
2022-11-05T06:06:21.174Z,80.43
2022-11-05T06:08:48.996Z,80.22
2022-11-05T06:11:16.184Z,80.22
2022-11-05T06:13:43.019Z,80.82
2022-11-05T06:16:10.327Z,80.65
2022-11-05T06:18:37.968Z,80.69
2022-11-05T06:21:11.612Z,80.82
2022-11-05T06:23:41.951Z,80.74
2022-11-05T06:26:13.182Z,80.90
2022-11-05T06:28:42.023Z,80.69
2022-11-05T06:31:10.590Z,80.89
2022-11-05T06:33:37.713Z,80.54
2022-11-05T06:36:06.675Z,80.57
2022-11-05T06:38:36.527Z,80.51
2022-11-05T06:41:09.021Z,80.89
2022-11-05T06:43:37.690Z,80.64
2022-11-05T06:46:04.962Z,81.21
2022-11-05T06:48:31.837Z,81.38
2022-11-05T06:50:58.823Z,81.44
2022-11-05T06:53:26.018Z,81.10
2022-11-05T06:55:52.831Z,81.34
2022-11-05T06:58:19.614Z,80.51
2022-11-05T07:00:46.880Z,80.18
2022-11-05T07:03:14.391Z,79.89
2022-11-05T07:05:48.555Z,80.07
2022-11-05T07:08:16.402Z,80.15
2022-11-05T07:10:43.380Z,80.06
2022-11-05T07:13:10.552Z,79.67
2022-11-05T07:15:38.052Z,79.84
2022-11-05T07:18:07.394Z,79.76
2022-11-05T07:20:34.854Z,79.35
2022-11-05T07:23:07.554Z,79.49
2022-11-05T07:25:35.447Z,79.00
2022-11-05T07:28:03.564Z,79.49
2022-11-05T07:30:32.164Z,78.68
2022-11-05T07:32:59.020Z,79.60
2022-11-05T07:35:26.560Z,78.87
2022-11-05T07:37:55.024Z,78.90
2022-11-05T07:40:24.975Z,78.64
2022-11-05T07:42:58.206Z,78.71
2022-11-05T07:45:27.271Z,79.29
2022-11-05T07:47:57.193Z,79.63
2022-11-05T07:50:27.077Z,78.14
2022-11-05T07:52:54.069Z,78.82
2022-11-05T07:55:21.135Z,78.77
2022-11-05T07:57:50.727Z,77.43
2022-11-05T08:00:21.738Z,77.56
2022-11-05T08:03:08.381Z,77.93
2022-11-05T08:05:44.358Z,78.19
2022-11-05T08:08:19.138Z,77.44
2022-11-05T08:10:46.423Z,76.89
2022-11-05T08:13:14.495Z,76.20
2022-11-05T08:15:42.615Z,76.67
2022-11-05T08:18:13.988Z,76.60
2022-11-05T08:20:42.756Z,75.97
2022-11-05T08:23:10.683Z,75.57
2022-11-05T08:25:37.929Z,76.77
2022-11-05T08:28:08.257Z,76.41
2022-11-05T08:30:35.766Z,75.54
2022-11-05T08:33:06.707Z,75.83
2022-11-05T08:35:35.829Z,75.20
2022-11-05T08:38:10.015Z,75.46
2022-11-05T08:40:37.752Z,74.17
2022-11-05T08:43:07.142Z,74.19
2022-11-05T08:45:38.341Z,74.54
2022-11-05T08:48:12.955Z,74.90
2022-11-05T08:50:39.864Z,74.69
2022-11-05T08:53:08.732Z,74.38
2022-11-05T08:55:36.301Z,73.53
2022-11-05T08:58:06.763Z,74.44
2022-11-05T09:00:36.233Z,75.09
2022-11-05T09:03:05.053Z,74.95
2022-11-05T09:05:38.013Z,74.72
2022-11-05T09:08:19.295Z,74.17
2022-11-05T09:10:47.555Z,74.04
2022-11-05T09:13:18.897Z,73.97
2022-11-05T09:15:48.510Z,74.92
2022-11-05T09:18:16.787Z,74.81
2022-11-05T09:20:43.848Z,75.11
2022-11-05T09:23:14.733Z,74.79
2022-11-05T09:25:42.039Z,74.22
2022-11-05T09:28:17.978Z,73.34
2022-11-05T09:30:49.265Z,73.71
2022-11-05T09:33:19.069Z,72.51
2022-11-05T09:35:46.415Z,73.05
2022-11-05T09:38:14.351Z,72.04
2022-11-05T09:40:58.098Z,72.38
2022-11-05T09:43:46.907Z,70.71
2022-11-05T09:46:26.279Z,70.73
2022-11-05T09:49:02.164Z,71.08
2022-11-05T09:51:29.752Z,71.64
2022-11-05T09:53:59.458Z,72.38
2022-11-05T09:56:40.519Z,72.75
2022-11-05T09:59:22.725Z,72.36
2022-11-05T10:01:52.305Z,72.06
2022-11-05T10:04:24.074Z,72.36
2022-11-05T10:07:01.031Z,71.46
2022-11-05T10:09:40.056Z,71.50
2022-11-05T10:12:17.482Z,71.46
2022-11-05T10:14:50.574Z,72.30
2022-11-05T10:17:28.542Z,72.94
2022-11-05T10:20:08.539Z,73.19
2022-11-05T10:22:36.502Z,73.63
2022-11-05T10:25:21.408Z,74.60
2022-11-05T10:27:53.572Z,74.77
2022-11-05T10:30:21.646Z,75.50
2022-11-05T10:32:53.060Z,74.97
2022-11-05T10:35:22.627Z,75.00
2022-11-05T10:37:50.790Z,74.91
2022-11-05T10:40:55.178Z,74.56
2022-11-05T10:43:48.643Z,72.80
2022-11-05T10:46:40.076Z,73.73
2022-11-05T10:49:42.443Z,72.44
2022-11-05T10:52:31.676Z,65.93
2022-11-05T10:55:02.952Z,62.06
2022-11-05T10:57:38.707Z,62.27
2022-11-05T11:00:21.577Z,60.32
2022-11-05T11:03:01.883Z,59.36
2022-11-05T11:05:40.310Z,60.06
2022-11-05T11:08:13.395Z,61.33
2022-11-05T11:10:49.074Z,62.73
2022-11-05T11:13:26.744Z,63.47
2022-11-05T11:15:55.159Z,62.27
2022-11-05T11:18:41.852Z,64.25
2022-11-05T11:21:22.988Z,65.11
2022-11-05T11:24:06.830Z,64.24
2022-11-05T11:26:37.778Z,65.81
2022-11-05T11:29:26.187Z,64.77
2022-11-05T11:32:00.017Z,65.58
2022-11-05T11:34:31.474Z,67.01
2022-11-05T11:37:19.781Z,67.40
2022-11-05T11:39:56.204Z,68.12
2022-11-05T11:42:34.994Z,67.18
2022-11-05T11:45:14.572Z,67.25
2022-11-05T11:47:47.693Z,67.94
2022-11-05T11:50:43.081Z,69.07
2022-11-05T11:53:19.775Z,67.13
2022-11-05T11:56:14.556Z,68.82
2022-11-05T11:58:53.625Z,67.51
2022-11-05T12:01:52.133Z,68.54
2022-11-05T12:04:56.961Z,68.90
2022-11-05T12:07:44.520Z,69.93
2022-11-05T12:11:10.932Z,69.34
2022-11-05T12:13:55.218Z,69.36
2022-11-05T12:16:58.783Z,69.43
2022-11-05T12:19:43.349Z,69.73
2022-11-05T12:22:34.559Z,69.41
2022-11-05T12:25:16.526Z,68.88
2022-11-05T12:27:46.384Z,68.93
2022-11-05T12:30:21.836Z,69.34
2022-11-05T12:33:26.281Z,70.08
2022-11-05T12:36:03.686Z,70.97
2022-11-05T12:39:09.846Z,69.83
2022-11-05T12:42:28.571Z,69.99
2022-11-05T12:45:29.918Z,70.11
2022-11-05T12:48:24.863Z,69.38
2022-11-05T12:51:51.156Z,70.20
2022-11-05T12:54:54.659Z,68.71
2022-11-05T12:57:24.225Z,68.56
2022-11-05T13:00:06.226Z,68.92
2022-11-05T13:03:01.364Z,67.06
2022-11-05T13:05:54.121Z,66.97
2022-11-05T13:08:49.712Z,67.04
2022-11-05T13:11:38.884Z,67.22
2022-11-05T13:14:15.129Z,67.93
2022-11-05T13:16:53.276Z,68.38
2022-11-05T13:19:52.069Z,68.24
2022-11-05T13:22:43.295Z,69.06
2022-11-05T13:25:32.137Z,69.34
2022-11-05T13:28:29.725Z,69.45
2022-11-05T13:31:01.504Z,69.47
2022-11-05T13:33:41.029Z,69.50
2022-11-05T13:36:37.882Z,69.38
2022-11-05T13:39:24.794Z,67.98
2022-11-05T13:42:19.165Z,68.59
2022-11-05T13:44:59.848Z,67.81
2022-11-05T13:47:26.527Z,67.58
2022-11-05T13:50:39.930Z,68.17
2022-11-05T13:53:26.291Z,68.17
2022-11-05T13:56:20.241Z,69.11
2022-11-05T13:58:58.789Z,69.11
2022-11-05T14:01:39.338Z,69.48
2022-11-05T14:04:06.554Z,70.51
2022-11-05T14:06:36.495Z,70.66
2022-11-05T14:09:12.184Z,70.94
2022-11-05T14:11:44.140Z,70.92
2022-11-05T14:14:21.578Z,70.18
2022-11-05T14:17:13.115Z,70.10
2022-11-05T14:20:06.675Z,70.97
2022-11-05T14:22:33.382Z,70.35
2022-11-05T14:25:18.957Z,70.36
2022-11-05T14:27:50.334Z,70.80
2022-11-05T14:30:44.825Z,70.51
2022-11-05T14:33:38.333Z,70.44
2022-11-05T14:36:34.027Z,70.82
2022-11-05T14:39:23.897Z,70.34
2022-11-05T14:42:12.916Z,70.84
2022-11-05T14:45:30.835Z,70.91
2022-11-05T14:48:04.303Z,71.13
2022-11-05T14:50:41.267Z,71.52
2022-11-05T14:53:35.799Z,71.83
2022-11-05T14:56:08.812Z,72.45
2022-11-05T14:58:40.959Z,72.55
2022-11-05T15:01:15.053Z,72.12
2022-11-05T15:03:46.298Z,72.67
2022-11-05T15:06:35.470Z,72.10
2022-11-05T15:09:27.269Z,72.22
2022-11-05T15:11:57.103Z,72.21
2022-11-05T15:14:40.845Z,72.79
2022-11-05T15:17:21.970Z,72.70
2022-11-05T15:19:49.193Z,72.53
2022-11-05T15:22:37.852Z,72.93
2022-11-05T15:25:06.581Z,73.35
2022-11-05T15:28:03.793Z,73.15
2022-11-05T15:30:31.651Z,73.14
2022-11-05T15:33:19.808Z,73.85
2022-11-05T15:35:46.647Z,74.28
2022-11-05T15:38:35.952Z,74.36
2022-11-05T15:41:29.243Z,75.21
2022-11-05T15:43:56.031Z,75.32
2022-11-05T15:46:28.022Z,75.52
2022-11-05T15:49:07.084Z,75.28
2022-11-05T15:51:35.492Z,75.60
2022-11-05T15:56:58.373Z,76.62
2022-11-05T15:59:27.670Z,76.66
2022-11-05T16:02:15.296Z,76.79
2022-11-05T16:04:47.482Z,77.07
2022-11-05T16:07:15.693Z,77.10
2022-11-05T16:09:52.153Z,77.41
2022-11-05T16:12:19.294Z,77.33
2022-11-05T16:15:10.736Z,77.24
2022-11-05T16:17:52.556Z,77.14
2022-11-05T16:20:32.731Z,77.36
2022-11-05T16:23:07.082Z,77.61
2022-11-05T16:25:42.414Z,77.49
2022-11-05T16:28:29.332Z,77.79
2022-11-05T16:30:57.943Z,77.72
2022-11-05T16:33:32.072Z,77.79
2022-11-05T16:35:59.002Z,78.00
2022-11-05T16:38:25.894Z,77.42
2022-11-05T16:40:52.683Z,77.57
2022-11-05T16:43:25.111Z,77.46
2022-11-05T16:45:59.285Z,77.35
2022-11-05T16:48:27.256Z,77.76
2022-11-05T16:50:54.716Z,77.66
2022-11-05T16:53:21.604Z,77.58
2022-11-05T16:55:49.264Z,77.30
2022-11-05T16:58:25.401Z,77.37
2022-11-05T17:00:59.678Z,77.47
2022-11-05T17:03:26.479Z,77.48
2022-11-05T17:05:53.278Z,77.04
2022-11-05T17:08:20.040Z,77.16
2022-11-05T17:10:46.886Z,76.83
2022-11-05T17:13:16.391Z,77.18
2022-11-05T17:15:45.758Z,77.57
2022-11-05T17:18:18.120Z,77.53
2022-11-05T17:20:50.066Z,77.35
2022-11-05T17:23:20.475Z,77.11
2022-11-05T17:25:50.856Z,77.03
2022-11-05T17:28:19.214Z,77.47
2022-11-05T17:30:52.245Z,77.52
2022-11-05T17:33:20.757Z,77.50
2022-11-05T17:35:47.599Z,77.47
2022-11-05T17:38:14.729Z,77.48
2022-11-05T17:40:41.764Z,77.11
2022-11-05T17:43:09.535Z,77.35
2022-11-05T17:45:46.884Z,77.56
2022-11-05T17:48:14.952Z,77.50
2022-11-05T17:50:49.377Z,77.44
2022-11-05T17:53:18.600Z,77.50
2022-11-05T17:55:46.956Z,77.61
2022-11-05T17:58:14.048Z,77.63
2022-11-05T18:00:42.370Z,77.63
2022-11-05T18:03:11.338Z,77.76
2022-11-05T18:05:39.908Z,77.78
2022-11-05T18:08:08.078Z,77.91
2022-11-05T18:10:39.617Z,77.94
2022-11-05T18:13:07.227Z,77.92
2022-11-05T18:15:35.436Z,77.73
2022-11-05T18:18:02.262Z,77.93
2022-11-05T18:20:29.555Z,77.88
2022-11-05T18:22:56.401Z,78.37
2022-11-05T18:25:23.225Z,78.01
2022-11-05T18:27:49.998Z,78.24
2022-11-05T18:30:17.006Z,78.22
2022-11-05T18:32:44.768Z,77.87
2022-11-05T18:35:13.345Z,78.50
2022-11-05T18:37:40.810Z,78.47
2022-11-05T18:40:08.320Z,78.89
2022-11-05T18:42:35.138Z,78.84
2022-11-05T18:45:02.010Z,78.41
2022-11-05T18:47:29.508Z,78.50
2022-11-05T18:49:56.299Z,78.68
2022-11-05T18:52:23.087Z,78.51
2022-11-05T18:54:49.919Z,78.26
2022-11-05T18:57:16.756Z,78.53
2022-11-05T18:59:46.647Z,78.38
2022-11-05T19:02:14.708Z,78.42
2022-11-05T19:05:00.439Z,78.66
2022-11-05T19:07:30.415Z,78.96
2022-11-05T19:09:57.216Z,78.58
2022-11-05T19:12:23.995Z,78.40
2022-11-05T19:14:50.781Z,78.36
2022-11-05T19:17:17.587Z,78.22
2022-11-05T19:19:44.390Z,78.21
2022-11-05T19:22:11.361Z,78.33
2022-11-05T19:24:38.152Z,77.75
2022-11-05T19:27:05.141Z,77.65
2022-11-05T19:29:32.037Z,77.81
2022-11-05T19:31:58.838Z,77.47
2022-11-05T19:34:25.762Z,77.51
2022-11-05T19:36:52.579Z,77.60
2022-11-05T19:39:19.362Z,77.39
2022-11-05T19:41:47.766Z,77.53
2022-11-05T19:44:14.528Z,77.76
2022-11-05T19:46:41.904Z,77.62
2022-11-05T19:49:08.679Z,77.93
2022-11-05T19:51:35.547Z,77.72
2022-11-05T19:54:09.599Z,77.96
2022-11-05T19:56:38.272Z,77.66
2022-11-05T19:59:10.530Z,77.80
2022-11-05T20:01:37.544Z,77.65
2022-11-05T20:04:05.692Z,77.56
2022-11-05T20:06:38.823Z,77.81
2022-11-05T20:09:22.135Z,77.45
2022-11-05T20:11:53.627Z,77.28
2022-11-05T20:14:20.667Z,77.80
2022-11-05T20:16:48.455Z,77.77
2022-11-05T20:19:18.497Z,78.35
2022-11-05T20:21:46.012Z,79.27
2022-11-05T20:24:22.072Z,78.39
2022-11-05T20:26:51.299Z,79.13
2022-11-05T20:29:18.159Z,78.65
2022-11-05T20:31:44.973Z,78.63
2022-11-05T20:34:11.861Z,78.34
2022-11-05T20:36:39.518Z,78.72
2022-11-05T20:39:06.345Z,78.39
2022-11-05T20:41:33.218Z,78.63
2022-11-05T20:44:00.111Z,78.35
2022-11-05T20:46:27.475Z,78.57
2022-11-05T20:48:54.791Z,78.15
2022-11-05T20:51:24.253Z,78.43
2022-11-05T20:53:56.473Z,78.32
2022-11-05T20:56:29.632Z,78.72
2022-11-05T20:58:58.690Z,78.65
2022-11-05T21:01:27.549Z,78.68
2022-11-05T21:03:54.621Z,79.11
2022-11-05T21:06:21.948Z,79.28
2022-11-05T21:08:50.425Z,79.36
2022-11-05T21:11:20.095Z,79.17
2022-11-05T21:13:47.540Z,79.25
2022-11-05T21:16:18.451Z,79.25
2022-11-05T21:18:46.580Z,79.19
2022-11-05T21:21:20.266Z,78.97
2022-11-05T21:23:47.672Z,78.41
2022-11-05T21:26:16.853Z,78.52
2022-11-05T21:28:43.809Z,78.27
2022-11-05T21:31:11.226Z,78.11
2022-11-05T21:33:38.596Z,78.20
2022-11-05T21:36:12.045Z,78.47
2022-11-05T21:38:40.685Z,78.37
2022-11-05T21:41:10.661Z,78.10
2022-11-05T21:43:39.331Z,78.37
2022-11-05T21:46:07.115Z,78.03
2022-11-05T21:48:34.019Z,77.86
2022-11-05T21:51:19.273Z,77.96
2022-11-05T21:54:04.716Z,78.57
2022-11-05T21:56:50.966Z,78.74
2022-11-05T21:59:42.756Z,79.26
2022-11-05T22:02:12.074Z,79.05
2022-11-05T22:04:42.213Z,79.12
2022-11-05T22:07:11.645Z,78.73
2022-11-05T22:09:38.615Z,78.81
2022-11-05T22:12:06.091Z,78.34
2022-11-05T22:14:33.252Z,78.40
2022-11-05T22:17:00.264Z,78.62
2022-11-05T22:19:27.961Z,78.38
2022-11-05T22:21:54.755Z,78.56
2022-11-05T22:24:21.819Z,78.66
2022-11-05T22:26:49.426Z,78.48
2022-11-05T22:29:17.220Z,78.13
2022-11-05T22:31:44.475Z,78.35
2022-11-05T22:34:11.913Z,78.38
2022-11-05T22:36:38.836Z,78.28
2022-11-05T22:39:06.498Z,78.35
2022-11-05T22:41:33.839Z,78.23
2022-11-05T22:44:00.720Z,78.68
2022-11-05T22:46:27.856Z,78.79
2022-11-05T22:48:56.154Z,78.75
2022-11-05T22:51:26.697Z,78.40
2022-11-05T22:53:57.548Z,78.52
2022-11-05T22:56:28.049Z,78.39
2022-11-05T22:58:55.852Z,78.02
2022-11-05T23:01:24.422Z,78.06
2022-11-05T23:03:54.015Z,78.48
2022-11-05T23:06:47.675Z,78.86
2022-11-05T23:09:43.007Z,78.79
2022-11-05T23:12:26.026Z,78.94
2022-11-05T23:14:53.796Z,79.12
2022-11-05T23:17:39.806Z,79.33
2022-11-05T23:20:15.334Z,79.40
2022-11-05T23:23:00.457Z,78.96
2022-11-05T23:25:27.247Z,79.57
2022-11-05T23:27:55.305Z,79.12
2022-11-05T23:30:26.242Z,79.38
2022-11-05T23:32:53.672Z,79.28
2022-11-05T23:35:40.808Z,79.05
2022-11-05T23:38:26.014Z,78.91
2022-11-05T23:41:11.520Z,78.62
2022-11-05T23:43:56.818Z,78.24
2022-11-05T23:46:42.109Z,78.49
2022-11-05T23:49:08.910Z,78.69
2022-11-05T23:51:35.703Z,78.82
2022-11-05T23:54:02.531Z,78.66
2022-11-05T23:56:31.668Z,78.73
2022-11-05T23:58:58.572Z,78.34
